Time;durP1;ratioP1;P1;durP2;ratioP2;P2;SDS_P1;SDS_P2;PMS_P1;PMS_P2;Temp;Humidity;BMP_temperature;BMP_pressure;BME280_temperature;BME280_humidity;BME280_pressure;Samples;Min_cycle;Max_cycle;Signal;HPM_P1;HPM_P2
2023/04/05 00:01:14;;;;;;;13.47;10.50;;;-1.30;99.90;;;;;;5010600;28;20476;-73
2023/04/05 00:03:42;;;;;;;13.53;10.17;;;-1.30;99.90;;;;;;5011300;28;20847;-73
2023/04/05 00:06:12;;;;;;;15.20;10.60;;;-1.20;99.90;;;;;;5011562;28;20455;-74
2023/04/05 00:08:40;;;;;;;13.17;10.27;;;-1.20;99.90;;;;;;4993481;28;20580;-74
2023/04/05 00:11:10;;;;;;;12.03;10.13;;;-1.10;99.90;;;;;;4992076;28;20460;-75
2023/04/05 00:13:39;;;;;;;12.57;9.20;;;-1.10;99.90;;;;;;4991970;28;20452;-76
2023/04/05 00:16:08;;;;;;;12.43;9.90;;;-1.10;99.90;;;;;;4996140;28;20915;-73
2023/04/05 00:18:37;;;;;;;12.77;9.87;;;-1.10;99.90;;;;;;5012577;28;20794;-75
2023/04/05 00:21:06;;;;;;;12.43;9.73;;;-1.00;99.90;;;;;;5014761;28;20529;-74
2023/04/05 00:23:37;;;;;;;12.10;9.77;;;-1.00;99.90;;;;;;5014722;28;20751;-75
2023/04/05 00:26:05;;;;;;;12.20;9.60;;;-1.00;99.90;;;;;;5013727;28;21000;-75
2023/04/05 00:28:34;;;;;;;11.60;9.13;;;-1.00;99.90;;;;;;5014630;28;20495;-74
2023/04/05 00:31:04;;;;;;;13.87;10.13;;;-1.00;99.90;;;;;;5014878;28;20491;-75
2023/04/05 00:33:32;;;;;;;14.60;9.73;;;-1.00;99.90;;;;;;5013500;28;20464;-75
2023/04/05 00:36:12;;;;;;;12.70;9.50;;;-0.90;99.90;;;;;;5014817;28;20645;-74
2023/04/05 00:38:41;;;;;;;16.10;9.17;;;-0.90;99.90;;;;;;5014535;28;20514;-75
2023/04/05 00:41:10;;;;;;;10.83;9.17;;;-1.00;99.90;;;;;;5013582;28;20844;-75
2023/04/05 00:43:39;;;;;;;12.73;9.10;;;-1.00;99.90;;;;;;5013950;28;20506;-75
2023/04/05 00:46:09;;;;;;;11.97;9.60;;;-1.00;99.90;;;;;;5014310;28;20444;-73
2023/04/05 00:48:38;;;;;;;11.57;9.40;;;-1.00;99.90;;;;;;5014378;28;20479;-75
2023/04/05 00:51:10;;;;;;;13.07;9.50;;;-1.00;99.90;;;;;;5013182;28;20492;-75
2023/04/05 00:53:39;;;;;;;11.57;8.97;;;-1.10;99.90;;;;;;5014248;28;20512;-74
2023/04/05 00:56:12;;;;;;;10.87;9.23;;;-1.00;99.90;;;;;;5013934;28;20455;-75
2023/04/05 00:58:41;;;;;;;11.17;9.40;;;-1.00;99.90;;;;;;5014439;28;20475;-73
2023/04/05 01:01:17;;;;;;;13.07;10.13;;;-1.00;99.90;;;;;;5013743;28;20472;-73
2023/04/05 01:03:52;;;;;;;13.33;9.60;;;-1.10;99.90;;;;;;5016915;28;20467;-74
2023/04/05 01:06:43;;;;;;;13.67;9.60;;;-1.10;99.90;;;;;;5013920;28;20459;-74
2023/04/05 01:09:22;;;;;;;14.23;10.77;;;-1.00;99.90;;;;;;5012880;28;20479;-75
2023/04/05 01:11:52;;;;;;;14.03;10.90;;;-1.00;99.90;;;;;;5013737;28;20455;-76
2023/04/05 01:14:20;;;;;;;15.33;11.00;;;-1.00;99.90;;;;;;5013859;28;20431;-74
2023/04/05 01:16:56;;;;;;;14.90;11.70;;;-1.00;99.90;;;;;;5013198;28;20471;-74
2023/04/05 01:19:29;;;;;;;14.77;11.27;;;-1.00;99.90;;;;;;5013930;28;20431;-74
2023/04/05 01:22:30;;;;;;;15.57;11.43;;;-1.10;99.90;;;;;;5013056;28;20437;-75
2023/04/05 01:25:18;;;;;;;14.40;11.67;;;-1.10;99.90;;;;;;5012786;28;20463;-75
2023/04/05 01:28:06;;;;;;;15.70;12.40;;;-1.10;99.90;;;;;;5013481;28;20518;-76
2023/04/05 01:30:39;;;;;;;16.57;11.63;;;-1.20;99.90;;;;;;5013654;28;20436;-75
2023/04/05 01:33:15;;;;;;;14.43;11.47;;;-1.20;99.90;;;;;;5012480;28;20853;-76
2023/04/05 01:35:50;;;;;;;13.53;11.10;;;-1.20;99.90;;;;;;5013870;28;20547;-76
2023/04/05 01:38:24;;;;;;;13.70;10.10;;;-1.20;99.90;;;;;;5014444;28;20511;-73
2023/04/05 01:40:53;;;;;;;12.60;10.43;;;-1.20;99.90;;;;;;5013016;28;20481;-76
2023/04/05 01:43:23;;;;;;;12.70;10.50;;;-1.30;99.90;;;;;;5014046;28;20656;-75
2023/04/05 01:45:53;;;;;;;14.73;10.17;;;-1.30;99.90;;;;;;5013788;28;20466;-76
2023/04/05 01:48:21;;;;;;;14.27;9.97;;;-1.40;99.90;;;;;;5013522;28;20491;-77
2023/04/05 01:50:49;;;;;;;13.87;9.77;;;-1.50;99.90;;;;;;5012322;28;20489;-77
2023/04/05 01:53:17;;;;;;;14.93;10.20;;;-1.50;99.90;;;;;;5013670;28;20455;-75
2023/04/05 01:55:46;;;;;;;14.73;9.80;;;-1.60;99.90;;;;;;5013622;28;20452;-75
2023/04/05 01:58:14;;;;;;;17.27;10.17;;;-1.60;99.90;;;;;;5012652;28;20444;-77
2023/04/05 02:00:45;;;;;;;12.53;10.00;;;-1.70;99.90;;;;;;4994228;28;20449;-76
2023/04/05 02:03:15;;;;;;;15.47;9.93;;;-1.80;99.90;;;;;;4993297;28;20445;-75
2023/04/05 02:05:43;;;;;;;14.33;10.37;;;-1.80;99.90;;;;;;4993428;28;20484;-75
2023/04/05 02:08:12;;;;;;;12.20;9.70;;;-1.90;99.90;;;;;;4993382;28;20486;-75
2023/04/05 02:10:40;;;;;;;13.30;10.13;;;-1.90;99.90;;;;;;4993889;28;20567;-75
2023/04/05 02:13:09;;;;;;;13.73;10.27;;;-1.90;99.90;;;;;;4993427;28;20459;-76
2023/04/05 02:15:37;;;;;;;13.50;11.03;;;-2.00;99.90;;;;;;4993536;28;20976;-76
2023/04/05 02:18:06;;;;;;;12.47;10.20;;;-2.00;99.90;;;;;;5011511;28;20452;-76
2023/04/05 02:20:36;;;;;;;12.53;9.43;;;-2.00;99.90;;;;;;5011259;28;20440;-76
2023/04/05 02:23:04;;;;;;;14.03;9.43;;;-2.10;99.90;;;;;;5011737;28;20460;-74
2023/04/05 02:25:33;;;;;;;10.37;8.83;;;-2.10;99.90;;;;;;5011029;28;20845;-76
2023/04/05 02:28:01;;;;;;;12.53;9.83;;;-2.10;99.90;;;;;;5011229;28;20660;-75
2023/04/05 02:30:29;;;;;;;12.97;10.43;;;-2.20;99.90;;;;;;5012234;28;20457;-74
2023/04/05 02:32:57;;;;;;;11.97;10.43;;;-2.20;99.90;;;;;;5012411;28;20890;-75
2023/04/05 02:35:25;;;;;;;13.63;10.43;;;-2.20;99.90;;;;;;5010942;28;20578;-76
2023/04/05 02:37:57;;;;;;;11.90;10.13;;;-2.20;99.90;;;;;;5012505;28;20455;-73
2023/04/05 02:40:25;;;;;;;13.90;10.57;;;-2.30;99.90;;;;;;5013270;28;20456;-75
2023/04/05 02:42:53;;;;;;;12.90;9.87;;;-2.30;99.90;;;;;;5011911;28;20504;-76
2023/04/05 02:45:21;;;;;;;13.70;10.33;;;-2.30;99.90;;;;;;5011871;28;20471;-76
2023/04/05 02:47:49;;;;;;;12.60;10.27;;;-2.30;99.90;;;;;;5013032;28;20868;-76
2023/04/05 02:50:19;;;;;;;13.77;10.73;;;-2.40;99.90;;;;;;5012640;28;20543;-75
2023/04/05 02:52:47;;;;;;;12.37;9.87;;;-2.40;99.90;;;;;;5012587;28;20515;-79
2023/04/05 02:55:17;;;;;;;14.23;10.27;;;-2.40;99.90;;;;;;5014496;28;20939;-74
2023/04/05 02:57:45;;;;;;;13.40;10.23;;;-2.50;99.90;;;;;;5014724;28;20449;-75
2023/04/05 03:00:15;;;;;;;13.63;11.23;;;-2.50;99.90;;;;;;5012847;28;20543;-75
2023/04/05 03:02:44;;;;;;;15.97;10.53;;;-2.50;99.90;;;;;;5013974;28;20977;-77
2023/04/05 03:05:12;;;;;;;14.83;10.93;;;-2.50;99.90;;;;;;5014271;28;20445;-75
2023/04/05 03:07:41;;;;;;;12.27;10.23;;;-2.50;99.90;;;;;;5015017;28;20459;-75
2023/04/05 03:10:09;;;;;;;13.67;10.87;;;-2.50;99.90;;;;;;5013552;28;20494;-75
2023/04/05 03:12:38;;;;;;;12.70;10.40;;;-2.50;99.90;;;;;;5016810;28;20448;-79
2023/04/05 03:15:10;;;;;;;13.90;10.43;;;-2.50;99.90;;;;;;5008500;28;20468;-77
2023/04/05 03:17:38;;;;;;;14.83;10.70;;;-2.60;99.90;;;;;;5015320;28;20461;-78
2023/04/05 03:20:08;;;;;;;12.83;9.60;;;-2.50;99.90;;;;;;5013779;28;20515;-76
2023/04/05 03:22:36;;;;;;;11.70;9.67;;;-2.60;99.90;;;;;;5013157;28;20485;-77
2023/04/05 03:25:05;;;;;;;12.80;9.93;;;-2.60;99.90;;;;;;5013310;28;20455;-78
2023/04/05 03:27:34;;;;;;;11.77;9.70;;;-2.60;99.90;;;;;;5012714;28;20673;-75
2023/04/05 03:30:03;;;;;;;11.63;9.13;;;-2.60;99.90;;;;;;4992852;28;20485;-75
2023/04/05 03:32:31;;;;;;;13.77;10.00;;;-2.70;99.90;;;;;;4992595;28;20461;-76
2023/04/05 03:34:59;;;;;;;14.97;10.27;;;-2.60;99.90;;;;;;4992375;28;20472;-75
2023/04/05 03:37:27;;;;;;;14.20;9.43;;;-2.70;99.90;;;;;;4993158;28;20457;-77
2023/04/05 03:39:56;;;;;;;11.47;9.30;;;-2.70;99.90;;;;;;4992822;28;20453;-76
2023/04/05 03:42:25;;;;;;;12.60;9.03;;;-2.70;99.90;;;;;;4992139;28;20492;-75
2023/04/05 03:44:53;;;;;;;11.33;9.10;;;-2.70;99.90;;;;;;4992448;28;20532;-75
2023/04/05 03:47:23;;;;;;;12.43;9.03;;;-2.70;99.90;;;;;;5006105;28;20472;-75
2023/04/05 03:49:51;;;;;;;9.67;8.27;;;-2.70;99.90;;;;;;5011780;28;20563;-77
2023/04/05 03:52:19;;;;;;;11.30;9.07;;;-2.80;99.90;;;;;;4996181;28;20449;-75
2023/04/05 03:54:47;;;;;;;12.40;8.60;;;-2.80;99.90;;;;;;5007533;28;20464;-74
2023/04/05 03:57:15;;;;;;;11.57;8.47;;;-2.80;99.90;;;;;;5015837;28;20518;-74
2023/04/05 03:59:43;;;;;;;11.47;8.43;;;-2.80;99.90;;;;;;5015975;28;20467;-73
2023/04/05 04:02:11;;;;;;;10.03;8.23;;;-2.80;99.90;;;;;;5015549;28;20452;-74
2023/04/05 04:04:41;;;;;;;11.30;8.03;;;-2.80;99.90;;;;;;5014348;28;20538;-76
2023/04/05 04:07:09;;;;;;;11.23;8.10;;;-2.80;99.90;;;;;;5015560;28;20784;-75
2023/04/05 04:09:37;;;;;;;13.27;7.77;;;-2.70;99.90;;;;;;5015268;28;20492;-74
2023/04/05 04:12:06;;;;;;;10.83;8.03;;;-2.70;99.90;;;;;;5015366;28;20966;-75
2023/04/05 04:14:35;;;;;;;11.63;8.13;;;-2.70;99.90;;;;;;5015334;28;20539;-75
2023/04/05 04:17:03;;;;;;;11.87;7.70;;;-2.70;99.90;;;;;;5015364;28;20456;-78
2023/04/05 04:19:31;;;;;;;10.30;7.53;;;-2.70;99.90;;;;;;5014078;28;20858;-75
2023/04/05 04:22:01;;;;;;;9.30;7.13;;;-2.70;99.90;;;;;;5014952;28;20481;-74
2023/04/05 04:24:31;;;;;;;10.80;7.10;;;-2.70;99.90;;;;;;5015012;28;20471;-74
2023/04/05 04:26:59;;;;;;;9.97;6.60;;;-2.80;99.90;;;;;;5014042;28;20460;-75
2023/04/05 04:29:30;;;;;;;10.50;6.80;;;-2.70;99.90;;;;;;5015592;28;20495;-76
2023/04/05 04:31:58;;;;;;;10.37;6.80;;;-2.70;99.90;;;;;;5015283;28;20488;-76
2023/04/05 04:34:29;;;;;;;10.50;6.93;;;-2.70;99.90;;;;;;5014982;28;20469;-76
2023/04/05 04:37:00;;;;;;;10.40;6.67;;;-2.70;99.90;;;;;;5014570;28;20433;-76
2023/04/05 04:39:31;;;;;;;7.03;5.60;;;-2.70;99.90;;;;;;5014783;28;20445;-75
2023/04/05 04:42:00;;;;;;;8.17;5.90;;;-2.70;99.90;;;;;;5013465;28;20424;-74
2023/04/05 04:44:30;;;;;;;9.53;6.10;;;-2.70;99.90;;;;;;5015083;28;20502;-75
2023/04/05 04:46:58;;;;;;;7.77;5.60;;;-2.70;99.90;;;;;;5014800;28;20451;-76
2023/04/05 04:49:27;;;;;;;8.47;6.00;;;-2.70;99.90;;;;;;5014228;28;20493;-75
2023/04/05 04:51:58;;;;;;;8.67;5.97;;;-2.70;99.90;;;;;;5013713;28;20504;-75
2023/04/05 04:54:27;;;;;;;10.73;6.17;;;-2.70;99.90;;;;;;5014440;28;20508;-75
2023/04/05 04:56:56;;;;;;;9.03;5.77;;;-2.70;99.90;;;;;;5014415;28;20456;-74
2023/04/05 04:59:24;;;;;;;8.27;6.30;;;-2.70;99.90;;;;;;5012975;28;20472;-74
2023/04/05 05:01:53;;;;;;;8.10;5.13;;;-2.60;99.90;;;;;;5014238;28;20471;-74
2023/04/05 05:04:21;;;;;;;7.60;5.23;;;-2.60;99.90;;;;;;5013956;28;20471;-76
2023/04/05 05:06:54;;;;;;;9.87;5.63;;;-2.50;99.90;;;;;;5005789;28;20446;-76
2023/04/05 05:09:22;;;;;;;8.30;5.70;;;-2.50;99.90;;;;;;5005320;28;20472;-74
2023/04/05 05:11:50;;;;;;;13.23;6.30;;;-2.40;99.90;;;;;;5003647;28;20537;-75
2023/04/05 05:14:20;;;;;;;9.97;5.77;;;-2.30;99.90;;;;;;5003335;28;20452;-74
2023/04/05 05:16:48;;;;;;;12.87;5.20;;;-2.30;99.90;;;;;;5009229;28;20548;-76
2023/04/05 05:19:16;;;;;;;8.50;5.57;;;-2.10;99.90;;;;;;5004122;28;20440;-75
2023/04/05 05:21:45;;;;;;;9.20;5.27;;;-2.10;99.90;;;;;;5004874;28;20468;-74
2023/04/05 05:24:13;;;;;;;8.03;4.83;;;-2.00;99.90;;;;;;5004961;28;20448;-75
2023/04/05 05:26:41;;;;;;;7.53;5.30;;;-2.00;99.90;;;;;;5008629;28;20555;-76
2023/04/05 05:29:10;;;;;;;7.87;5.37;;;-2.00;99.90;;;;;;5004771;28;20450;-76
2023/04/05 05:31:39;;;;;;;9.97;5.03;;;-1.90;99.90;;;;;;5003225;28;20576;-76
2023/04/05 05:34:07;;;;;;;8.77;5.30;;;-1.90;99.90;;;;;;5002563;28;20477;-75
2023/04/05 05:36:36;;;;;;;10.03;5.23;;;-1.80;99.90;;;;;;5000027;28;20460;-74
2023/04/05 05:39:04;;;;;;;10.37;5.23;;;-1.80;99.90;;;;;;4994206;28;20449;-76
2023/04/05 05:41:33;;;;;;;9.90;5.77;;;-1.80;99.90;;;;;;4994177;28;20509;-76
2023/04/05 05:44:01;;;;;;;6.83;4.90;;;-1.70;99.90;;;;;;5006084;28;20551;-74
2023/04/05 05:46:29;;;;;;;9.43;4.97;;;-1.60;99.90;;;;;;5013577;28;20491;-77
2023/04/05 05:48:59;;;;;;;8.43;5.10;;;-1.60;99.90;;;;;;5013351;28;20486;-76
2023/04/05 05:51:27;;;;;;;8.13;4.60;;;-1.50;99.90;;;;;;5013256;28;21037;-75
2023/04/05 05:53:55;;;;;;;8.43;5.17;;;-1.50;99.90;;;;;;5012643;28;20551;-76
2023/04/05 05:56:23;;;;;;;7.30;4.57;;;-1.40;99.90;;;;;;5013503;28;20479;-74
2023/04/05 05:58:51;;;;;;;8.27;5.00;;;-1.40;99.90;;;;;;5012832;28;20456;-75
2023/04/05 06:01:21;;;;;;;9.30;5.40;;;-1.30;99.90;;;;;;4993612;28;20446;-74
2023/04/05 06:03:50;;;;;;;8.63;4.93;;;-1.20;99.90;;;;;;4995835;28;20494;-74
2023/04/05 06:06:20;;;;;;;7.80;4.53;;;-1.10;99.90;;;;;;5013329;28;20492;-75
2023/04/05 06:08:50;;;;;;;7.93;4.50;;;-0.90;99.90;;;;;;5012418;28;20556;-75
2023/04/05 06:11:20;;;;;;;6.27;4.47;;;-0.70;99.90;;;;;;5013051;28;20522;-74
2023/04/05 06:13:48;;;;;;;6.40;4.40;;;-0.40;99.90;;;;;;5012751;28;20487;-75
2023/04/05 06:16:16;;;;;;;7.27;4.03;;;0.10;99.90;;;;;;5012662;28;20503;-75
2023/04/05 06:18:45;;;;;;;7.07;4.10;;;1.00;99.90;;;;;;5003931;28;20216;-73
2023/04/05 06:21:13;;;;;;;7.37;4.00;;;1.70;99.90;;;;;;5012256;28;20221;-74
2023/04/05 06:23:42;;;;;;;6.83;4.20;;;2.10;99.90;;;;;;5012399;28;20260;-76
2023/04/05 06:26:17;;;;;;;6.90;4.23;;;2.40;99.90;;;;;;5003555;28;20214;-72
2023/04/05 06:28:46;;;;;;;7.57;4.27;;;3.10;99.90;;;;;;4994412;28;20573;-74
2023/04/05 06:31:16;;;;;;;7.60;4.00;;;3.20;99.90;;;;;;4993045;28;20720;-75
2023/04/05 06:33:45;;;;;;;6.63;3.80;;;3.50;99.90;;;;;;5005021;28;20256;-73
2023/04/05 06:36:13;;;;;;;6.57;3.93;;;4.00;99.90;;;;;;5012265;28;20213;-73
2023/04/05 06:38:42;;;;;;;10.17;4.33;;;4.50;99.30;;;;;;5011933;28;20221;-74
2023/04/05 06:41:10;;;;;;;8.80;4.17;;;4.40;97.70;;;;;;5012995;28;20688;-73
2023/04/05 06:43:38;;;;;;;5.43;3.40;;;4.70;97.50;;;;;;5019941;28;20659;-73
2023/04/05 06:46:08;;;;;;;5.50;3.83;;;4.80;96.30;;;;;;5013054;28;20300;-73
2023/04/05 06:48:36;;;;;;;6.83;3.83;;;4.60;95.20;;;;;;5012822;28;20205;-75
2023/04/05 06:51:04;;;;;;;5.43;3.77;;;4.60;95.30;;;;;;5010828;28;20233;-74
2023/04/05 06:53:33;;;;;;;6.97;4.27;;;5.40;94.60;;;;;;5012137;28;20216;-73
2023/04/05 06:56:02;;;;;;;6.17;4.03;;;5.30;92.60;;;;;;5012874;28;20296;-74
2023/04/05 06:58:30;;;;;;;5.57;3.93;;;5.00;93.90;;;;;;5010789;28;20210;-74
2023/04/05 07:01:03;;;;;;;7.40;4.00;;;5.20;92.20;;;;;;5012459;28;20739;-75
2023/04/05 07:03:32;;;;;;;5.63;3.80;;;5.70;91.40;;;;;;5012579;28;20213;-74
2023/04/05 07:06:01;;;;;;;6.63;3.80;;;5.70;90.80;;;;;;5012606;28;20217;-77
2023/04/05 07:08:32;;;;;;;7.93;4.17;;;5.10;91.10;;;;;;5011140;28;20209;-75
2023/04/05 07:11:02;;;;;;;6.13;3.70;;;5.20;91.20;;;;;;5012691;28;20217;-75
2023/04/05 07:13:30;;;;;;;5.77;4.00;;;6.00;90.90;;;;;;5012144;28;20573;-76
2023/04/05 07:16:03;;;;;;;6.77;3.80;;;6.30;88.10;;;;;;5010837;28;20675;-75
2023/04/05 07:18:31;;;;;;;7.57;3.83;;;7.10;84.40;;;;;;5012407;28;20213;-75
2023/04/05 07:21:00;;;;;;;7.33;3.83;;;7.50;80.10;;;;;;5011917;28;20215;-75
2023/04/05 07:23:29;;;;;;;7.43;4.03;;;7.30;79.50;;;;;;5011191;28;20210;-77
2023/04/05 07:26:04;;;;;;;6.23;3.83;;;7.70;80.00;;;;;;5007571;28;20296;-75
2023/04/05 07:28:34;;;;;;;6.63;3.87;;;8.00;75.50;;;;;;5014131;28;20569;-76
2023/04/05 07:31:03;;;;;;;7.03;4.17;;;7.50;75.40;;;;;;5016271;28;20662;-76
2023/04/05 07:33:31;;;;;;;5.27;3.60;;;8.30;72.40;;;;;;5016157;28;20300;-76
2023/04/05 07:35:59;;;;;;;7.00;3.87;;;8.90;71.90;;;;;;5015032;28;20229;-76
2023/04/05 07:38:28;;;;;;;5.67;3.97;;;9.80;69.80;;;;;;5016130;28;20297;-77
2023/04/05 07:40:57;;;;;;;6.00;3.37;;;10.30;60.70;;;;;;5016488;28;20305;-75
2023/04/05 07:43:27;;;;;;;5.27;3.50;;;8.80;61.00;;;;;;5016342;28;20209;-75
2023/04/05 07:46:01;;;;;;;6.33;3.30;;;9.70;60.70;;;;;;5016640;28;20700;-75
2023/04/05 07:48:29;;;;;;;5.27;3.50;;;9.40;59.10;;;;;;5007496;28;20252;-77
2023/04/05 07:51:02;;;;;;;5.13;3.50;;;10.40;58.70;;;;;;4996067;28;20245;-76
2023/04/05 07:53:30;;;;;;;5.70;3.30;;;11.50;55.70;;;;;;4994999;28;20206;-75
2023/04/05 07:55:59;;;;;;;7.87;3.50;;;11.10;55.40;;;;;;4994769;28;20214;-75
2023/04/05 07:58:29;;;;;;;6.37;3.43;;;11.40;54.40;;;;;;5007602;28;20293;-76
2023/04/05 08:01:00;;;;;;;6.63;3.47;;;10.60;53.80;;;;;;5017832;28;20232;-77
2023/04/05 08:03:29;;;;;;;5.73;3.43;;;10.30;52.80;;;;;;5018180;28;20213;-75
2023/04/05 08:05:58;;;;;;;5.40;3.10;;;10.10;53.30;;;;;;5018671;28;20267;-77
2023/04/05 08:08:26;;;;;;;5.37;3.10;;;10.60;52.50;;;;;;5017090;28;20241;-77
2023/04/05 08:10:54;;;;;;;5.20;3.40;;;11.20;52.40;;;;;;5017443;28;20221;-76
2023/04/05 08:13:22;;;;;;;6.10;3.50;;;10.90;51.40;;;;;;5015550;28;20213;-76
2023/04/05 08:15:55;;;;;;;4.97;3.43;;;11.30;51.50;;;;;;5016477;28;20224;-74
2023/04/05 08:18:23;;;;;;;3.97;3.13;;;11.20;50.20;;;;;;5017583;28;20198;-75
2023/04/05 08:20:52;;;;;;;5.13;3.60;;;12.10;50.20;;;;;;5015712;28;20293;-75
2023/04/05 08:23:20;;;;;;;6.07;3.47;;;12.20;49.30;;;;;;5018131;28;20205;-76
2023/04/05 08:25:48;;;;;;;6.40;3.60;;;12.70;49.80;;;;;;5021447;28;20223;-76
2023/04/05 08:28:17;;;;;;;5.23;3.07;;;13.70;48.90;;;;;;5018150;28;20210;-75
2023/04/05 08:30:46;;;;;;;3.57;3.00;;;13.90;46.00;;;;;;5017019;28;20218;-77
2023/04/05 08:33:15;;;;;;;6.60;3.60;;;14.50;44.30;;;;;;5020735;28;20514;-76
2023/04/05 08:35:43;;;;;;;5.80;3.20;;;15.00;43.20;;;;;;5016866;28;20206;-76
2023/04/05 08:38:11;;;;;;;5.50;3.50;;;15.30;42.30;;;;;;5014226;28;20221;-76
2023/04/05 08:40:42;;;;;;;5.20;3.57;;;13.90;41.70;;;;;;5015460;28;20214;-76
2023/04/05 08:43:13;;;;;;;6.00;3.23;;;13.70;43.30;;;;;;5015029;28;20609;-75
2023/04/05 08:45:47;;;;;;;5.03;3.60;;;14.30;42.50;;;;;;5015080;28;20197;-76
2023/04/05 08:48:17;;;;;;;4.80;3.40;;;14.50;42.20;;;;;;5014050;28;20205;-74
2023/04/05 08:50:51;;;;;;;5.53;3.50;;;14.20;41.10;;;;;;5015287;28;20236;-75
2023/04/05 08:53:19;;;;;;;5.97;3.60;;;13.70;41.60;;;;;;5023162;28;20209;-75
2023/04/05 08:55:49;;;;;;;4.20;3.20;;;15.10;42.20;;;;;;5013569;28;20224;-77
2023/04/05 08:58:20;;;;;;;5.23;3.37;;;14.60;41.20;;;;;;4994986;28;20668;-76
2023/04/05 09:00:50;;;;;;;5.23;3.33;;;15.60;41.10;;;;;;4994751;28;20210;-76
2023/04/05 09:03:22;;;;;;;4.33;3.07;;;15.40;40.80;;;;;;4994751;28;20210;-76
2023/04/05 09:05:51;;;;;;;4.20;3.30;;;15.00;41.10;;;;;;4995364;28;20257;-76
2023/04/05 09:08:21;;;;;;;5.27;3.47;;;15.80;39.30;;;;;;4995057;28;20318;-74
2023/04/05 09:10:51;;;;;;;3.87;3.03;;;15.70;37.90;;;;;;4995631;28;20224;-76
2023/04/05 09:13:20;;;;;;;4.73;3.30;;;14.40;38.60;;;;;;5003831;28;20625;-76
2023/04/05 09:15:48;;;;;;;5.63;3.27;;;14.40;41.00;;;;;;4994499;28;20272;-76
2023/04/05 09:18:16;;;;;;;4.07;3.30;;;15.40;38.70;;;;;;4994833;28;20210;-75
2023/04/05 09:21:03;;;;;;;6.30;3.60;;;14.80;39.00;;;;;;4994997;28;20202;-77
2023/04/05 09:23:33;;;;;;;5.57;3.57;;;14.50;37.20;;;;;;5005577;28;20229;-75
2023/04/05 09:26:17;;;;;;;5.97;3.37;;;13.20;38.30;;;;;;5014400;28;20452;-74
2023/04/05 09:28:45;;;;;;;5.80;3.23;;;11.60;39.90;;;;;;4997366;28;20584;-75
2023/04/05 09:31:31;;;;;;;5.07;3.53;;;12.60;43.30;;;;;;5013222;28;20201;-75
2023/04/05 09:34:02;;;;;;;4.73;3.17;;;13.90;43.00;;;;;;5013705;28;20578;-75
2023/04/05 09:36:33;;;;;;;5.13;3.40;;;14.20;38.90;;;;;;5013009;28;20205;-76
2023/04/05 09:39:06;;;;;;;4.27;3.30;;;14.00;38.70;;;;;;5014736;28;20560;-76
2023/04/05 09:41:35;;;;;;;5.47;3.83;;;13.60;40.20;;;;;;5014187;28;20695;-75
2023/04/05 09:44:04;;;;;;;6.13;3.50;;;14.90;39.90;;;;;;5012407;28;20217;-73
2023/04/05 09:46:36;;;;;;;5.33;3.43;;;14.50;40.40;;;;;;5013894;28;20260;-75
2023/04/05 09:49:06;;;;;;;5.73;3.50;;;14.90;39.40;;;;;;5005821;28;20216;-77
2023/04/05 09:51:38;;;;;;;5.23;3.40;;;14.60;37.30;;;;;;5013319;28;20234;-77
2023/04/05 09:54:08;;;;;;;5.43;3.70;;;13.10;38.00;;;;;;5012582;28;20324;-77
2023/04/05 09:56:38;;;;;;;6.77;3.50;;;11.90;38.50;;;;;;5013688;28;20688;-75
2023/04/05 09:59:09;;;;;;;6.03;3.20;;;11.40;41.90;;;;;;5014074;28;20584;-74
2023/04/05 10:01:38;;;;;;;4.27;3.03;;;11.20;42.20;;;;;;5013548;28;20276;-74
2023/04/05 10:04:08;;;;;;;5.00;3.50;;;10.80;43.60;;;;;;5014026;28;20284;-74
2023/04/05 10:06:40;;;;;;;6.40;3.37;;;9.80;43.10;;;;;;5014320;28;20244;-74
2023/04/05 10:09:10;;;;;;;5.23;3.77;;;10.30;45.80;;;;;;5013212;28;20220;-75
2023/04/05 10:11:38;;;;;;;6.40;3.33;;;9.90;45.30;;;;;;5013907;28;20224;-74
2023/04/05 10:14:08;;;;;;;6.33;4.17;;;9.40;45.90;;;;;;5013909;28;20234;-74
2023/04/05 10:16:43;;;;;;;5.27;3.43;;;8.70;46.60;;;;;;5012186;28;20217;-75
2023/04/05 10:19:20;;;;;;;5.43;3.80;;;9.40;46.30;;;;;;5013770;28;20209;-73
2023/04/05 10:21:52;;;;;;;4.80;3.53;;;9.80;47.30;;;;;;5013298;28;20557;-76
2023/04/05 10:24:35;;;;;;;4.27;3.27;;;9.90;45.00;;;;;;5013786;28;20343;-76
2023/04/05 10:27:07;;;;;;;6.50;3.70;;;9.60;46.60;;;;;;5005151;28;20273;-75
2023/04/05 10:29:44;;;;;;;8.20;3.57;;;9.30;47.90;;;;;;4993877;28;20210;-75
2023/04/05 10:32:18;;;;;;;7.00;3.93;;;9.50;48.10;;;;;;4993727;28;20565;-77
2023/04/05 10:34:57;;;;;;;5.00;3.53;;;10.60;46.20;;;;;;4993254;28;20649;-76
2023/04/05 10:37:47;;;;;;;6.03;3.57;;;11.50;43.60;;;;;;4993240;28;20202;-75
2023/04/05 10:40:20;;;;;;;4.63;3.60;;;10.70;44.50;;;;;;4993427;28;20253;-75
2023/04/05 10:42:49;;;;;;;5.70;3.50;;;10.30;45.00;;;;;;4993105;28;20237;-75
2023/04/05 10:45:21;;;;;;;4.73;3.60;;;10.80;46.50;;;;;;4993123;28;20305;-75
2023/04/05 10:47:54;;;;;;;5.60;3.43;;;11.10;44.80;;;;;;4992760;28;20194;-74
2023/04/05 10:50:24;;;;;;;4.73;3.10;;;12.60;44.90;;;;;;4992801;28;20261;-76
2023/04/05 10:52:56;;;;;;;4.60;3.37;;;14.00;44.70;;;;;;5012180;28;20226;-74
2023/04/05 10:55:24;;;;;;;5.37;3.50;;;14.10;41.70;;;;;;5013020;28;20186;-75
2023/04/05 10:57:54;;;;;;;5.50;3.70;;;13.80;42.50;;;;;;5020441;28;20301;-76
2023/04/05 11:00:23;;;;;;;5.03;3.47;;;15.40;38.50;;;;;;5011489;28;20225;-77
2023/04/05 11:02:55;;;;;;;4.27;3.27;;;15.60;39.80;;;;;;5011705;28;20287;-77
2023/04/05 11:05:31;;;;;;;3.70;3.10;;;16.00;39.60;;;;;;5012401;28;20190;-77
2023/04/05 11:08:05;;;;;;;4.80;3.30;;;15.30;39.90;;;;;;5011438;28;20197;-76
2023/04/05 11:10:36;;;;;;;5.30;3.10;;;14.50;41.60;;;;;;5012424;28;20602;-77
2023/04/05 11:13:10;;;;;;;4.17;3.10;;;14.70;41.80;;;;;;5012232;28;20233;-76
2023/04/05 11:15:38;;;;;;;4.30;3.17;;;15.10;39.60;;;;;;5011910;28;20625;-76
2023/04/05 11:18:09;;;;;;;4.00;3.10;;;14.40;39.70;;;;;;4992545;28;20214;-75
2023/04/05 11:20:47;;;;;;;4.33;3.20;;;14.80;40.30;;;;;;4992674;28;20199;-76
2023/04/05 11:23:18;;;;;;;4.80;3.10;;;15.60;40.70;;;;;;4992403;28;20201;-76
2023/04/05 11:25:49;;;;;;;5.53;3.17;;;15.40;37.50;;;;;;4993000;28;20253;-76
2023/04/05 11:28:25;;;;;;;4.93;3.20;;;15.30;38.50;;;;;;4992996;28;20210;-75
2023/04/05 11:30:55;;;;;;;6.10;3.20;;;14.60;37.60;;;;;;4992798;28;20229;-75
2023/04/05 11:33:54;;;;;;;4.80;3.57;;;14.00;38.70;;;;;;4992060;28;20233;-76
2023/04/05 11:36:32;;;;;;;8.67;3.30;;;13.10;39.50;;;;;;5009946;28;20220;-77
2023/04/05 11:39:27;;;;;;;6.37;3.23;;;13.40;40.90;;;;;;5012203;28;20225;-75
2023/04/05 11:41:59;;;;;;;4.77;3.10;;;13.90;41.30;;;;;;5011821;28;20244;-75
2023/04/05 11:44:27;;;;;;;4.87;3.40;;;13.80;40.60;;;;;;5010554;28;20212;-76
2023/04/05 11:46:55;;;;;;;4.07;3.10;;;13.90;41.70;;;;;;5012024;28;20213;-75
2023/04/05 11:49:24;;;;;;;4.43;3.03;;;13.80;42.40;;;;;;5011566;28;20308;-76
2023/04/05 11:51:53;;;;;;;4.60;3.23;;;14.30;42.00;;;;;;5009974;28;20609;-75
2023/04/05 11:54:33;;;;;;;5.17;3.63;;;13.50;39.40;;;;;;5010798;28;20332;-75
2023/04/05 11:57:02;;;;;;;5.60;3.53;;;12.40;40.70;;;;;;5010300;28;20248;-76
2023/04/05 11:59:32;;;;;;;5.37;3.57;;;11.80;40.60;;;;;;5010836;28;20206;-74
2023/04/05 12:02:02;;;;;;;6.87;3.90;;;9.60;43.00;;;;;;5011875;28;20288;-74
2023/04/05 12:04:31;;;;;;;6.03;4.03;;;9.20;46.60;;;;;;5012336;28;20197;-74
2023/04/05 12:07:12;;;;;;;5.03;3.70;;;8.50;47.20;;;;;;5011421;28;20283;-77
2023/04/05 12:10:02;;;;;;;5.70;3.67;;;9.20;50.40;;;;;;4999245;28;20230;-75
2023/04/05 12:12:37;;;;;;;6.03;3.60;;;9.30;49.80;;;;;;5009542;28;20213;-76
2023/04/05 12:15:08;;;;;;;5.10;3.97;;;9.40;49.40;;;;;;5013664;28;20225;-75
2023/04/05 12:17:43;;;;;;;6.20;4.10;;;9.30;48.90;;;;;;5015460;28;20296;-75
2023/04/05 12:20:13;;;;;;;5.33;3.53;;;9.10;50.50;;;;;;5014346;28;20241;-76
2023/04/05 12:22:43;;;;;;;5.40;3.60;;;9.10;48.80;;;;;;5015100;28;20267;-77
2023/04/05 12:25:13;;;;;;;5.23;3.53;;;9.60;49.80;;;;;;5014365;28;20230;-74
2023/04/05 12:27:42;;;;;;;5.23;4.03;;;9.10;50.50;;;;;;5010330;28;20221;-76
2023/04/05 12:30:14;;;;;;;6.47;4.10;;;9.20;52.30;;;;;;5004339;28;20221;-76
2023/04/05 12:32:47;;;;;;;5.57;4.13;;;9.00;49.40;;;;;;5006156;28;20223;-74
2023/04/05 12:35:18;;;;;;;5.93;4.20;;;9.10;51.50;;;;;;5005854;28;20308;-75
2023/04/05 12:37:46;;;;;;;6.47;4.00;;;9.70;51.10;;;;;;5006132;28;20323;-75
2023/04/05 12:40:21;;;;;;;5.73;3.80;;;10.20;49.90;;;;;;5005599;28;20655;-75
2023/04/05 12:42:51;;;;;;;5.53;3.83;;;10.20;48.30;;;;;;5007511;28;20210;-74
2023/04/05 12:45:23;;;;;;;7.07;4.07;;;9.90;49.40;;;;;;5006106;28;20198;-75
2023/04/05 12:47:53;;;;;;;5.10;3.73;;;9.50;47.40;;;;;;5003239;28;20692;-74
2023/04/05 12:50:27;;;;;;;7.03;3.97;;;9.30;49.30;;;;;;5006729;28;20264;-74
2023/04/05 12:52:57;;;;;;;5.37;4.03;;;9.30;50.80;;;;;;5006095;28;20211;-74
2023/04/05 12:55:28;;;;;;;6.17;4.10;;;9.80;49.90;;;;;;5005510;28;20696;-75
2023/04/05 12:57:59;;;;;;;6.30;4.40;;;10.20;49.40;;;;;;5006559;28;20245;-75
2023/04/05 13:00:29;;;;;;;5.77;4.60;;;9.90;48.50;;;;;;5008148;28;20295;-75